Time,TemperatureF,DewpointF,PressureIn,WindDirection,WindDirectionDegrees,WindSpeedMPH,WindSpeedGustMPH,Humidity,HourlyPrecipIn,Conditions,Clouds,dailyrainin,SoftwareType,DateUTC
2013-03-27 00:00:00,38.3,23.5,29.68,NW,315,0.0,3.0,55,0.00,,,-99.99,WeatherLink 5.4,2013-03-27 04:00:00,
2013-03-27 00:15:00,38.0,23.7,29.68,NW,315,1.0,5.0,56,0.00,,,-99.99,WeatherLink 5.4,2013-03-27 04:15:00,
2013-03-27 00:30:00,37.8,23.9,29.68,WNW,292,0.0,3.0,57,0.00,,,-99.99,WeatherLink 5.4,2013-03-27 04:30:00,
2013-03-27 00:45:00,37.5,24.1,29.68,WNW,292,1.0,5.0,58,0.00,,,-99.99,WeatherLink 5.4,2013-03-27 04:45:00,
2013-03-27 01:00:00,37.2,24.2,29.69,WNW,292,0.0,3.0,59,0.00,,,-99.99,WeatherLink 5.4,2013-03-27 05:00:00,
2013-03-27 01:15:00,37.0,24.4,29.69,WNW,292,0.0,6.0,60,0.00,,,-99.99,WeatherLink 5.4,2013-03-27 05:15:00,
2013-03-27 01:30:00,36.8,24.6,29.69,NW,315,0.0,3.0,61,0.00,,,-99.99,WeatherLink 5.4,2013-03-27 05:30:00,
2013-03-27 01:45:00,36.5,24.7,29.69,WNW,292,0.0,1.0,62,0.00,,,-99.99,WeatherLink 5.4,2013-03-27 05:45:00,
2013-03-27 02:00:00,36.3,24.9,29.69,WNW,292,0.0,4.0,63,0.00,,,-99.99,WeatherLink 5.4,2013-03-27 06:00:00,
2013-03-27 02:15:00,36.2,24.8,29.68,West,270,0.0,3.0,63,0.00,,,-99.99,WeatherLink 5.4,2013-03-27 06:15:00,
2013-03-27 02:30:00,35.9,24.9,29.68,WNW,292,0.0,3.0,64,0.00,,,-99.99,WeatherLink 5.4,2013-03-27 06:30:00,
2013-03-27 02:45:00,35.6,25.0,29.68,NW,315,0.0,3.0,65,0.00,,,-99.99,WeatherLink 5.4,2013-03-27 06:45:00,
2013-03-27 03:00:00,35.5,24.9,29.68,NW,315,0.0,3.0,65,0.00,,,-99.99,WeatherLink 5.4,2013-03-27 07:00:00,
2013-03-27 03:15:00,35.3,25.1,29.68,WNW,292,0.0,6.0,66,0.00,,,-99.99,WeatherLink 5.4,2013-03-27 07:15:00,
2013-03-27 03:30:00,35.2,25.0,29.68,WNW,292,0.0,3.0,66,0.00,,,-99.99,WeatherLink 5.4,2013-03-27 07:30:00,
2013-03-27 03:45:00,35.0,24.8,29.68,NW,315,0.0,3.0,66,0.00,,,-99.99,WeatherLink 5.4,2013-03-27 07:45:00,
2013-03-27 04:00:00,34.7,24.9,29.68,WNW,292,0.0,3.0,67,0.00,,,-99.99,WeatherLink 5.4,2013-03-27 08:00:00,
2013-03-27 04:15:00,34.4,24.9,29.68,North,-999,0.0,0.0,68,0.00,,,-99.99,WeatherLink 5.4,2013-03-27 08:15:00,
2013-03-27 04:30:00,34.1,24.6,29.68,North,-999,0.0,0.0,68,0.00,,,-99.99,WeatherLink 5.4,2013-03-27 08:30:00,
2013-03-27 04:45:00,34.0,24.5,29.68,NW,315,0.0,5.0,68,0.00,,,-99.99,WeatherLink 5.4,2013-03-27 08:45:00,
2013-03-27 05:00:00,34.1,24.6,29.68,WNW,292,0.0,3.0,68,0.00,,,-99.99,WeatherLink 5.4,2013-03-27 09:00:00,
2013-03-27 05:15:00,34.0,24.5,29.68,WNW,292,0.0,5.0,68,0.00,,,-99.99,WeatherLink 5.4,2013-03-27 09:15:00,
2013-03-27 05:30:00,33.5,24.4,29.68,West,270,1.0,5.0,69,0.00,,,-99.99,WeatherLink 5.4,2013-03-27 09:30:00,
2013-03-27 05:45:00,33.5,24.1,29.68,WNW,292,0.0,3.0,68,0.00,,,-99.99,WeatherLink 5.4,2013-03-27 09:45:00,
2013-03-27 06:00:00,33.8,24.4,29.69,NW,315,1.0,5.0,68,0.00,,,-99.99,WeatherLink 5.4,2013-03-27 10:00:00,
2013-03-27 06:15:00,34.0,24.2,29.69,WNW,292,1.0,6.0,67,0.00,,,-99.99,WeatherLink 5.4,2013-03-27 10:15:00,
2013-03-27 06:30:00,34.0,24.2,29.69,WNW,292,1.0,7.0,67,0.00,,,-99.99,WeatherLink 5.4,2013-03-27 10:30:00,
2013-03-27 06:45:00,34.1,23.9,29.69,WNW,292,2.0,8.0,66,0.00,,,-99.99,WeatherLink 5.4,2013-03-27 10:45:00,
2013-03-27 07:00:00,34.6,24.0,29.69,NW,315,2.0,8.0,65,0.00,,,-99.99,WeatherLink 5.4,2013-03-27 11:00:00,
2013-03-27 07:15:00,35.6,24.6,29.70,WNW,292,2.0,10.0,64,0.00,,,-99.99,WeatherLink 5.4,2013-03-27 11:15:00,
2013-03-27 07:30:00,36.3,24.5,29.70,WNW,292,3.0,9.0,62,0.00,,,-99.99,WeatherLink 5.4,2013-03-27 11:30:00,
2013-03-27 07:45:00,37.3,24.7,29.70,WNW,292,2.0,10.0,60,0.00,,,-99.99,WeatherLink 5.4,2013-03-27 11:45:00,
2013-03-27 08:00:00,38.2,24.7,29.70,NW,315,3.0,13.0,58,0.00,,,-99.99,WeatherLink 5.4,2013-03-27 12:00:00,
2013-03-27 08:15:00,39.2,25.6,29.70,WNW,292,3.0,13.0,58,0.00,,,-99.99,WeatherLink 5.4,2013-03-27 12:15:00,
2013-03-27 08:30:00,39.9,25.5,29.70,WNW,292,3.0,12.0,56,0.00,,,-99.99,WeatherLink 5.4,2013-03-27 12:30:00,
2013-03-27 08:45:00,40.6,25.7,29.70,NW,315,5.0,16.0,55,0.00,,,-99.99,WeatherLink 5.4,2013-03-27 12:45:00,
2013-03-27 09:00:00,41.6,26.2,29.70,NW,315,6.0,13.0,54,0.00,,,-99.99,WeatherLink 5.4,2013-03-27 13:00:00,
2013-03-27 09:15:00,42.5,26.6,29.70,NW,315,5.0,15.0,53,0.00,,,-99.99,WeatherLink 5.4,2013-03-27 13:15:00,
2013-03-27 09:30:00,43.5,26.6,29.70,WNW,292,6.0,14.0,51,0.00,,,-99.99,WeatherLink 5.4,2013-03-27 13:30:00,
2013-03-27 09:45:00,44.5,27.0,29.70,WNW,292,6.0,18.0,50,0.00,,,-99.99,WeatherLink 5.4,2013-03-27 13:45:00,
2013-03-27 10:00:00,44.9,27.4,29.70,NW,315,7.0,19.0,50,0.00,,,-99.99,WeatherLink 5.4,2013-03-27 14:00:00,
2013-03-27 10:15:00,45.7,27.1,29.69,WNW,292,8.0,18.0,48,0.00,,,-99.99,WeatherLink 5.4,2013-03-27 14:15:00,
2013-03-27 10:30:00,46.2,27.6,29.69,NW,315,8.0,17.0,48,0.00,,,-99.99,WeatherLink 5.4,2013-03-27 14:30:00,
2013-03-27 10:45:00,47.1,27.9,29.69,North,0,8.0,16.0,47,0.00,,,-99.99,WeatherLink 5.4,2013-03-27 14:45:00,
2013-03-27 11:00:00,47.9,27.6,29.68,NW,315,7.0,20.0,45,0.00,,,-99.99,WeatherLink 5.4,2013-03-27 15:00:00,
2013-03-27 11:15:00,48.3,27.9,29.68,NW,315,9.0,20.0,45,0.00,,,-99.99,WeatherLink 5.4,2013-03-27 15:15:00,
2013-03-27 11:30:00,48.8,27.8,29.68,North,0,8.0,18.0,44,0.00,,,-99.99,WeatherLink 5.4,2013-03-27 15:30:00,
2013-03-27 11:45:00,49.2,27.1,29.67,NNW,337,9.0,21.0,42,0.00,,,-99.99,WeatherLink 5.4,2013-03-27 15:45:00,
2013-03-27 12:00:00,49.1,27.5,29.67,NW,315,10.0,20.0,43,0.00,,,-99.99,WeatherLink 5.4,2013-03-27 16:00:00,
2013-03-27 12:15:00,50.2,28.0,29.67,North,0,9.0,19.0,42,0.00,,,-99.99,WeatherLink 5.4,2013-03-27 16:15:00,
2013-03-27 12:30:00,50.1,27.3,29.67,North,0,9.0,20.0,41,0.00,,,-99.99,WeatherLink 5.4,2013-03-27 16:30:00,
2013-03-27 12:45:00,50.8,27.3,29.67,NW,315,9.0,19.0,40,0.00,,,-99.99,WeatherLink 5.4,2013-03-27 16:45:00,
2013-03-27 13:00:00,50.7,27.2,29.66,North,0,6.0,21.0,40,0.00,,,-99.99,WeatherLink 5.4,2013-03-27 17:00:00,
2013-03-27 13:15:00,50.4,26.3,29.66,NW,315,8.0,18.0,39,0.00,,,-99.99,WeatherLink 5.4,2013-03-27 17:15:00,
2013-03-27 13:30:00,51.3,27.2,29.65,North,0,7.0,19.0,39,0.00,,,-99.99,WeatherLink 5.4,2013-03-27 17:30:00,
2013-03-27 13:45:00,50.7,26.0,29.66,North,0,8.0,18.0,38,0.00,,,-99.99,WeatherLink 5.4,2013-03-27 17:45:00,
2013-03-27 14:00:00,50.2,26.8,29.65,North,0,8.0,18.0,40,0.00,,,-99.99,WeatherLink 5.4,2013-03-27 18:00:00,
2013-03-27 14:15:00,50.5,25.8,29.65,North,0,10.0,20.0,38,0.00,,,-99.99,WeatherLink 5.4,2013-03-27 18:15:00,
2013-03-27 14:30:00,50.5,26.4,29.65,North,0,9.0,20.0,39,0.00,,,-99.99,WeatherLink 5.4,2013-03-27 18:30:00,
2013-03-27 14:45:00,51.9,27.7,29.65,WNW,292,8.0,18.0,39,0.00,,,-99.99,WeatherLink 5.4,2013-03-27 18:45:00,
2013-03-27 15:00:00,52.8,27.2,29.65,NW,315,6.0,17.0,37,0.00,,,-99.99,WeatherLink 5.4,2013-03-27 19:00:00,
2013-03-27 15:15:00,51.6,26.8,29.65,North,0,10.0,21.0,38,0.00,,,-99.99,WeatherLink 5.4,2013-03-27 19:15:00,
2013-03-27 15:30:00,51.7,26.9,29.66,North,0,10.0,18.0,38,0.00,,,-99.99,WeatherLink 5.4,2013-03-27 19:30:00,
2013-03-27 15:45:00,51.3,27.2,29.66,North,0,8.0,19.0,39,0.00,,,-99.99,WeatherLink 5.4,2013-03-27 19:45:00,
2013-03-27 16:00:00,52.2,27.3,29.66,North,0,10.0,27.0,38,0.00,,,-99.99,WeatherLink 5.4,2013-03-27 20:00:00,
2013-03-27 16:15:00,52.2,26.7,29.66,North,0,10.0,25.0,37,0.00,,,-99.99,WeatherLink 5.4,2013-03-27 20:15:00,
2013-03-27 16:30:00,51.6,26.8,29.66,North,0,11.0,21.0,38,0.00,,,-99.99,WeatherLink 5.4,2013-03-27 20:30:00,
2013-03-27 16:45:00,50.8,26.7,29.67,North,0,10.0,21.0,39,0.00,,,-99.99,WeatherLink 5.4,2013-03-27 20:45:00,
2013-03-27 17:00:00,50.5,27.0,29.67,North,0,11.0,24.0,40,0.00,,,-99.99,WeatherLink 5.4,2013-03-27 21:00:00,
2013-03-27 17:15:00,50.1,26.7,29.68,North,0,9.0,22.0,40,0.00,,,-99.99,WeatherLink 5.4,2013-03-27 21:15:00,
2013-03-27 17:30:00,50.7,27.2,29.69,North,0,10.0,20.0,40,0.00,,,-99.99,WeatherLink 5.4,2013-03-27 21:30:00,
2013-03-27 17:45:00,50.7,27.2,29.69,North,0,12.0,22.0,40,0.00,,,-99.99,WeatherLink 5.4,2013-03-27 21:45:00,
2013-03-27 18:00:00,47.0,31.7,29.71,ENE,67,5.0,12.0,55,0.00,,,-99.99,WeatherLink 5.4,2013-03-27 22:00:00,
2013-03-27 18:15:00,45.7,32.6,29.72,ENE,67,2.0,8.0,60,0.00,,,-99.99,WeatherLink 5.4,2013-03-27 22:15:00,
2013-03-27 18:30:00,45.1,33.2,29.72,East,90,1.0,6.0,63,0.00,,,-99.99,WeatherLink 5.4,2013-03-27 22:30:00,
2013-03-27 18:45:00,44.8,34.1,29.73,ENE,67,0.0,5.0,66,0.00,,,-99.99,WeatherLink 5.4,2013-03-27 22:45:00,
2013-03-27 19:00:00,44.6,33.9,29.74,NE,45,1.0,11.0,66,0.00,,,-99.99,WeatherLink 5.4,2013-03-27 23:00:00,
2013-03-27 19:15:00,45.2,32.9,29.74,North,0,2.0,10.0,62,0.00,,,-99.99,WeatherLink 5.4,2013-03-27 23:15:00,
2013-03-27 19:30:00,45.8,31.4,29.74,North,0,7.0,18.0,57,0.00,,,-99.99,WeatherLink 5.4,2013-03-27 23:30:00,
2013-03-27 19:45:00,45.7,31.3,29.75,North,0,5.0,11.0,57,0.00,,,-99.99,WeatherLink 5.4,2013-03-27 23:45:00,
2013-03-27 20:00:00,45.2,31.7,29.75,North,0,8.0,17.0,59,0.00,,,-99.99,WeatherLink 5.4,2013-03-28 00:00:00,
2013-03-27 20:15:00,44.2,32.8,29.76,North,0,8.0,18.0,64,0.00,,,-99.99,WeatherLink 5.4,2013-03-28 00:15:00,
2013-03-27 20:30:00,43.6,33.4,29.76,North,0,9.0,25.0,67,0.00,,,-99.99,WeatherLink 5.4,2013-03-28 00:30:00,
2013-03-27 20:45:00,43.2,33.3,29.77,North,0,7.0,16.0,68,0.00,,,-99.99,WeatherLink 5.4,2013-03-28 00:45:00,
2013-03-27 21:00:00,43.1,33.6,29.77,North,0,7.0,16.0,69,0.00,,,-99.99,WeatherLink 5.4,2013-03-28 01:00:00,
2013-03-27 21:15:00,42.9,33.4,29.78,North,0,7.0,18.0,69,0.00,,,-99.99,WeatherLink 5.4,2013-03-28 01:15:00,
2013-03-27 21:30:00,42.3,34.3,29.78,North,0,6.0,17.0,73,0.00,,,-99.99,WeatherLink 5.4,2013-03-28 01:30:00,
2013-03-27 21:45:00,41.6,34.6,29.78,North,0,6.0,13.0,76,0.00,,,-99.99,WeatherLink 5.4,2013-03-28 01:45:00,
2013-03-27 22:00:00,41.1,34.8,29.78,North,0,6.0,12.0,78,0.00,,,-99.99,WeatherLink 5.4,2013-03-28 02:00:00,
2013-03-27 22:15:00,40.9,35.2,29.78,North,0,5.0,12.0,80,0.00,,,-99.99,WeatherLink 5.4,2013-03-28 02:15:00,
2013-03-27 22:30:00,40.9,35.2,29.78,NNW,337,3.0,11.0,80,0.00,,,-99.99,WeatherLink 5.4,2013-03-28 02:30:00,
2013-03-27 22:45:00,40.8,35.1,29.78,NNW,337,3.0,11.0,80,0.00,,,-99.99,WeatherLink 5.4,2013-03-28 02:45:00,
2013-03-27 23:00:00,40.6,35.2,29.78,North,0,5.0,14.0,81,0.00,,,-99.99,WeatherLink 5.4,2013-03-28 03:00:00,
2013-03-27 23:15:00,40.6,35.2,29.78,NNW,337,4.0,13.0,81,0.00,,,-99.99,WeatherLink 5.4,2013-03-28 03:15:00,
2013-03-27 23:30:00,40.3,34.9,29.78,North,0,6.0,14.0,81,0.00,,,-99.99,WeatherLink 5.4,2013-03-28 03:30:00,
2013-03-27 23:45:00,40.2,35.4,29.78,North,0,7.0,19.0,83,0.00,,,-99.99,WeatherLink 5.4,2013-03-28 03:45:00,